createdAt,value
2018-09-02T00:01:10.449Z,14.23
2018-09-02T00:03:39.220Z,14.63
2018-09-02T00:06:08.166Z,15.27
2018-09-02T00:08:37.106Z,16.67
2018-09-02T00:11:05.459Z,16.00
2018-09-02T00:13:33.960Z,15.10
2018-09-02T00:16:04.340Z,14.83
2018-09-02T00:18:33.695Z,14.80
2018-09-02T00:21:08.472Z,16.10
2018-09-02T00:23:40.399Z,14.33
2018-09-02T00:26:08.763Z,15.10
2018-09-02T00:28:37.172Z,16.27
2018-09-02T00:31:07.397Z,16.30
2018-09-02T00:33:35.856Z,15.70
2018-09-02T00:36:05.438Z,18.00
2018-09-02T00:38:34.798Z,15.97
2018-09-02T00:41:03.023Z,16.60
2018-09-02T00:43:33.235Z,17.53
2018-09-02T00:46:02.319Z,18.57
2018-09-02T00:48:30.495Z,16.27
2018-09-02T00:50:58.865Z,17.47
2018-09-02T00:53:29.051Z,16.20
2018-09-02T00:55:57.496Z,17.77
2018-09-02T00:58:25.745Z,15.97
2018-09-02T01:00:55.417Z,16.10
2018-09-02T01:03:23.422Z,16.50
2018-09-02T01:05:52.656Z,15.50
2018-09-02T01:08:21.021Z,17.97
2018-09-02T01:10:50.159Z,14.30
2018-09-02T01:13:19.419Z,16.50
2018-09-02T01:15:48.261Z,16.20
2018-09-02T01:18:17.354Z,16.47
2018-09-02T01:20:46.235Z,17.10
2018-09-02T01:23:14.304Z,16.80
2018-09-02T01:25:42.647Z,16.00
2018-09-02T01:28:10.767Z,15.20
2018-09-02T01:30:39.230Z,15.77
2018-09-02T01:33:07.772Z,17.40
2018-09-02T01:35:37.152Z,17.97
2018-09-02T01:38:05.957Z,17.00
2018-09-02T01:40:35.564Z,15.93
2018-09-02T01:43:04.376Z,16.47
2018-09-02T01:45:34.114Z,15.10
2018-09-02T01:48:09.866Z,15.53
2018-09-02T01:50:38.237Z,17.40
2018-09-02T01:53:06.429Z,16.13
2018-09-02T01:55:34.716Z,15.00
2018-09-02T01:58:02.887Z,16.63
2018-09-02T02:00:31.383Z,19.20
2018-09-02T02:02:59.677Z,15.97
2018-09-02T02:05:28.169Z,16.27
2018-09-02T02:07:56.369Z,18.40
2018-09-02T02:10:24.408Z,16.20
2018-09-02T02:12:52.393Z,18.00
2018-09-02T02:15:20.376Z,16.70
2018-09-02T02:17:49.159Z,16.13
2018-09-02T02:20:17.396Z,17.67
2018-09-02T02:22:45.788Z,16.90
2018-09-02T02:25:13.847Z,18.80
2018-09-02T02:27:41.918Z,15.20
2018-09-02T02:30:10.041Z,20.77
2018-09-02T02:32:38.170Z,19.30
2018-09-02T02:35:06.720Z,21.73
2018-09-02T02:37:35.744Z,20.67
2018-09-02T02:40:04.364Z,20.50
2018-09-02T02:42:33.884Z,19.40
2018-09-02T02:45:02.465Z,19.80
2018-09-02T02:47:31.565Z,19.43
2018-09-02T02:50:00.017Z,18.57
2018-09-02T02:52:33.266Z,16.20
2018-09-02T02:55:01.388Z,18.40
2018-09-02T02:57:29.783Z,18.67
2018-09-02T02:59:57.730Z,18.53
2018-09-02T03:02:25.749Z,20.73
2018-09-02T03:04:53.768Z,20.00
2018-09-02T03:07:21.868Z,21.00
2018-09-02T03:09:49.923Z,19.87
2018-09-02T03:12:18.001Z,21.40
2018-09-02T03:14:46.142Z,22.20
2018-09-02T03:17:14.208Z,23.27
2018-09-02T03:19:42.483Z,20.93
2018-09-02T03:22:10.631Z,23.43
2018-09-02T03:24:39.065Z,23.03
2018-09-02T03:27:07.308Z,21.00
2018-09-02T03:29:35.696Z,22.70
2018-09-02T03:32:04.585Z,23.40
2018-09-02T03:34:32.925Z,22.30
2018-09-02T03:37:01.069Z,23.10
2018-09-02T03:39:29.745Z,24.17
2018-09-02T03:41:57.756Z,21.70
2018-09-02T03:44:25.894Z,23.10
2018-09-02T03:46:53.885Z,22.60
2018-09-02T03:49:22.318Z,22.40
2018-09-02T03:51:50.597Z,22.40
2018-09-02T03:54:18.544Z,23.37
2018-09-02T03:56:46.611Z,24.30
2018-09-02T03:59:15.018Z,22.47
2018-09-02T04:01:43.050Z,22.13
2018-09-02T04:04:11.249Z,20.27
2018-09-02T04:06:39.459Z,22.53
2018-09-02T04:09:08.585Z,20.13
2018-09-02T04:11:36.824Z,19.70
2018-09-02T04:14:05.081Z,20.03
2018-09-02T04:16:33.532Z,19.00
2018-09-02T04:19:01.753Z,21.00
2018-09-02T04:21:29.905Z,19.50
2018-09-02T04:23:57.954Z,19.80
2018-09-02T04:26:26.152Z,21.03
2018-09-02T04:28:54.209Z,22.00
2018-09-02T04:31:22.294Z,20.20
2018-09-02T04:33:50.318Z,20.47
2018-09-02T04:36:18.242Z,19.87
2018-09-02T04:38:46.233Z,16.80
2018-09-02T04:41:14.389Z,18.10
2018-09-02T04:43:42.463Z,17.63
2018-09-02T04:46:10.574Z,17.90
2018-09-02T04:48:38.564Z,16.27
2018-09-02T04:51:06.697Z,15.10
2018-09-02T04:53:34.864Z,16.77
2018-09-02T04:56:03.544Z,16.80
2018-09-02T04:58:31.629Z,16.00
2018-09-02T05:00:59.760Z,15.80
2018-09-02T05:03:27.952Z,17.80
2018-09-02T05:05:55.917Z,14.40
2018-09-02T05:08:23.897Z,16.87
2018-09-02T05:10:51.864Z,15.67
2018-09-02T05:13:19.876Z,18.07
2018-09-02T05:15:47.825Z,16.47
2018-09-02T05:18:15.872Z,16.20
2018-09-02T05:20:43.842Z,14.90
2018-09-02T05:23:11.980Z,18.50
2018-09-02T05:25:40.178Z,16.10
2018-09-02T05:28:08.266Z,15.70
2018-09-02T05:30:36.557Z,17.63
2018-09-02T05:33:04.881Z,17.13
2018-09-02T05:35:33.041Z,18.37
2018-09-02T05:38:01.146Z,17.67
2018-09-02T05:40:29.155Z,17.60
2018-09-02T05:42:57.639Z,19.17
2018-09-02T05:45:26.011Z,15.57
2018-09-02T05:47:53.997Z,16.97
2018-09-02T05:50:22.037Z,15.80
2018-09-02T05:52:50.068Z,17.67
2018-09-02T05:55:18.042Z,14.17
2018-09-02T05:57:46.069Z,15.70
2018-09-02T06:00:14.100Z,14.07
2018-09-02T06:02:42.193Z,14.47
2018-09-02T06:05:10.425Z,13.03
2018-09-02T06:07:38.621Z,13.27
2018-09-02T06:10:06.796Z,13.43
2018-09-02T06:12:35.027Z,11.67
2018-09-02T06:15:04.268Z,11.30
2018-09-02T06:17:32.512Z,11.50
2018-09-02T06:20:00.764Z,11.50
2018-09-02T06:22:28.916Z,13.47
2018-09-02T06:24:57.443Z,12.13
2018-09-02T06:27:25.769Z,13.20
2018-09-02T06:29:53.883Z,12.37
2018-09-02T06:32:22.125Z,14.03
2018-09-02T06:34:50.168Z,10.97
2018-09-02T06:37:18.188Z,11.43
2018-09-02T06:39:46.216Z,11.20
2018-09-02T06:42:14.284Z,11.57
2018-09-02T06:44:42.295Z,11.57
2018-09-02T06:47:10.411Z,12.43
2018-09-02T06:49:38.557Z,10.80
2018-09-02T06:52:06.950Z,13.47
2018-09-02T06:54:35.331Z,12.03
2018-09-02T06:57:03.721Z,10.23
2018-09-02T06:59:31.921Z,11.90
2018-09-02T07:02:00.082Z,11.70
2018-09-02T07:04:28.274Z,12.20
2018-09-02T07:06:56.627Z,10.90
2018-09-02T07:09:24.672Z,11.47
2018-09-02T07:11:52.700Z,12.00
2018-09-02T07:14:20.781Z,10.03
2018-09-02T07:16:48.680Z,10.40
2018-09-02T07:19:18.826Z,11.03
2018-09-02T07:21:46.815Z,9.73
2018-09-02T07:24:14.801Z,10.00
2018-09-02T07:26:43.262Z,12.50
2018-09-02T07:29:11.460Z,10.60
2018-09-02T07:31:40.166Z,10.40
2018-09-02T07:34:08.340Z,11.20
2018-09-02T07:36:36.726Z,11.53
2018-09-02T07:39:06.095Z,12.47
2018-09-02T07:41:34.592Z,10.97
2018-09-02T07:44:02.858Z,11.97
2018-09-02T07:46:31.847Z,13.00
2018-09-02T07:49:00.025Z,12.63
2018-09-02T07:51:28.289Z,11.60
2018-09-02T07:53:58.323Z,12.63
2018-09-02T07:56:26.569Z,11.97
2018-09-02T07:58:54.730Z,13.57
2018-09-02T08:01:22.708Z,12.00
2018-09-02T08:03:50.901Z,11.00
2018-09-02T08:06:18.885Z,10.80
2018-09-02T08:08:46.983Z,11.93
2018-09-02T08:11:15.089Z,10.70
2018-09-02T08:13:43.139Z,11.33
2018-09-02T08:16:12.575Z,10.17
2018-09-02T08:18:40.694Z,10.83
2018-09-02T08:21:08.834Z,9.30
2018-09-02T08:23:37.038Z,9.93
2018-09-02T08:26:05.907Z,9.60
2018-09-02T08:28:35.918Z,9.13
2018-09-02T08:31:04.263Z,9.60
2018-09-02T08:33:32.882Z,8.20
2018-09-02T08:36:03.427Z,8.80
2018-09-02T08:38:32.138Z,8.70
2018-09-02T08:41:00.281Z,8.67
2018-09-02T08:43:28.473Z,8.23
2018-09-02T08:45:56.449Z,8.67
2018-09-02T08:48:24.513Z,9.93
2018-09-02T08:50:52.530Z,9.83
2018-09-02T08:53:20.539Z,10.23
2018-09-02T08:55:49.147Z,8.50
2018-09-02T08:58:18.556Z,9.67
2018-09-02T09:00:48.860Z,11.70
2018-09-02T09:03:18.786Z,11.00
2018-09-02T09:05:47.895Z,10.10
2018-09-02T09:08:16.278Z,11.30
2018-09-02T09:10:45.120Z,10.23
2018-09-02T09:13:13.813Z,10.13
2018-09-02T09:15:42.040Z,11.40
2018-09-02T09:18:10.439Z,11.33
2018-09-02T09:20:39.134Z,11.10
2018-09-02T09:23:12.691Z,12.50
2018-09-02T09:25:41.818Z,11.03
2018-09-02T09:28:09.897Z,10.77
2018-09-02T09:30:38.449Z,10.60
2018-09-02T09:33:07.287Z,6.90
2018-09-02T09:35:36.385Z,9.80
2018-09-02T09:38:04.526Z,7.00
2018-09-02T09:40:37.057Z,8.50
2018-09-02T09:45:39.760Z,7.60
2018-09-02T09:48:08.910Z,8.67
2018-09-02T09:53:20.627Z,7.90
2018-09-02T09:55:51.109Z,8.40
2018-09-02T10:00:54.712Z,8.40
2018-09-02T10:03:23.813Z,8.47
2018-09-02T10:05:51.983Z,7.20
2018-09-02T10:08:20.607Z,8.10
2018-09-02T10:10:48.864Z,8.43
2018-09-02T10:13:19.440Z,11.50
2018-09-02T10:15:47.582Z,7.70
2018-09-02T10:18:15.753Z,7.77
2018-09-02T10:20:43.786Z,8.10
2018-09-02T10:23:12.967Z,10.00
2018-09-02T10:25:44.565Z,9.40
2018-09-02T10:28:12.876Z,9.90
2018-09-02T10:30:42.255Z,10.00
2018-09-02T10:33:10.714Z,8.90
2018-09-02T10:35:40.175Z,9.50
2018-09-02T10:38:10.089Z,10.10
2018-09-02T10:40:38.336Z,9.17
2018-09-02T10:43:06.640Z,11.30
2018-09-02T10:45:37.854Z,9.90
2018-09-02T10:48:06.063Z,11.00
2018-09-02T10:50:34.516Z,10.40
2018-09-02T10:53:02.990Z,10.30
2018-09-02T10:55:32.139Z,10.73
2018-09-02T10:58:00.257Z,9.80
2018-09-02T11:00:28.656Z,9.97
2018-09-02T11:02:57.701Z,11.20
2018-09-02T11:05:26.141Z,7.20
2018-09-02T11:07:54.326Z,6.30
2018-09-02T11:10:23.388Z,7.13
2018-09-02T11:12:51.617Z,7.13
2018-09-02T11:15:19.653Z,6.37
2018-09-02T11:17:48.151Z,5.80
2018-09-02T11:20:16.264Z,6.60
2018-09-02T11:22:44.813Z,6.30
2018-09-02T11:25:12.839Z,6.93
2018-09-02T11:27:41.042Z,6.83
2018-09-02T11:30:09.800Z,7.83
2018-09-02T11:32:39.081Z,5.90
2018-09-02T11:35:07.314Z,7.27
2018-09-02T11:37:35.653Z,9.10
2018-09-02T11:40:06.742Z,7.63
2018-09-02T11:42:39.406Z,8.00
2018-09-02T11:45:08.228Z,6.80
2018-09-02T11:47:47.915Z,8.67
2018-09-02T11:50:15.991Z,8.30
2018-09-02T11:55:19.020Z,7.50
2018-09-02T12:00:32.281Z,6.27
2018-09-02T12:03:00.590Z,6.60
2018-09-02T12:05:28.794Z,7.90
2018-09-02T12:07:57.053Z,7.43
2018-09-02T12:13:06.269Z,8.33
2018-09-02T12:18:08.719Z,4.33
2018-09-02T12:20:38.378Z,5.10
2018-09-02T12:23:06.888Z,5.03
2018-09-02T12:25:35.248Z,6.47
2018-09-02T12:28:03.577Z,7.70
2018-09-02T12:33:04.801Z,7.50
2018-09-02T12:40:48.432Z,7.83
2018-09-02T12:43:17.398Z,8.60
2018-09-02T12:45:47.796Z,8.40
2018-09-02T12:48:15.864Z,7.67
2018-09-02T12:53:16.400Z,6.40
2018-09-02T12:55:44.905Z,7.73
2018-09-02T12:58:13.539Z,8.40
2018-09-02T13:00:42.604Z,8.67
2018-09-02T13:03:10.689Z,7.93
2018-09-02T13:05:39.158Z,6.77
2018-09-02T13:08:07.664Z,7.90
2018-09-02T13:10:36.047Z,6.40
2018-09-02T13:13:20.879Z,5.93
2018-09-02T13:15:48.956Z,6.23
2018-09-02T13:18:17.195Z,5.53
2018-09-02T13:20:45.341Z,5.90
2018-09-02T13:25:46.449Z,7.10
2018-09-02T13:28:14.965Z,6.27
2018-09-02T13:30:43.081Z,5.57
2018-09-02T13:33:11.435Z,5.60
2018-09-02T13:35:39.678Z,7.03
2018-09-02T13:38:08.124Z,5.80
2018-09-02T13:40:36.520Z,6.60
2018-09-02T13:43:04.928Z,8.87
2018-09-02T13:45:40.112Z,4.90
2018-09-02T13:48:13.589Z,5.13
2018-09-02T13:50:42.396Z,3.37
2018-09-02T13:55:53.477Z,4.60
2018-09-02T13:58:21.467Z,4.57
2018-09-02T14:00:49.631Z,4.90
2018-09-02T14:03:18.241Z,4.40
2018-09-02T14:05:46.678Z,4.73
2018-09-02T14:22:01.378Z,5.83
2018-09-02T14:30:10.180Z,5.77
2018-09-02T14:35:32.768Z,6.57
2018-09-02T14:46:36.109Z,6.20
2018-09-02T15:04:14.233Z,6.40
2018-09-02T15:06:42.974Z,5.87
2018-09-02T15:15:08.840Z,5.60
2018-09-02T15:35:10.814Z,8.60
2018-09-02T15:46:13.200Z,8.67
2018-09-02T16:16:55.992Z,8.90
2018-09-02T16:19:29.410Z,9.67
2018-09-02T16:24:39.787Z,10.03
2018-09-02T16:29:47.744Z,11.17
2018-09-02T16:34:56.282Z,9.33
2018-09-02T16:37:25.003Z,9.00
2018-09-02T16:45:26.260Z,11.33
2018-09-02T16:47:56.249Z,10.40
2018-09-02T16:50:29.759Z,11.23
2018-09-02T16:52:58.097Z,11.30
2018-09-02T16:58:10.710Z,11.90
2018-09-02T17:00:39.917Z,11.60
2018-09-02T17:03:09.194Z,12.13
2018-09-02T17:08:21.267Z,11.83
2018-09-02T17:10:50.392Z,12.00
2018-09-02T17:13:18.742Z,16.07
2018-09-02T17:15:51.300Z,12.33
2018-09-02T17:32:21.993Z,12.20
2018-09-02T17:43:58.766Z,11.83
2018-09-02T17:49:03.858Z,13.27
2018-09-02T17:51:40.169Z,13.30
2018-09-02T17:54:09.100Z,14.60
2018-09-02T17:56:37.761Z,14.03
2018-09-02T18:01:43.411Z,13.80
2018-09-02T18:04:14.827Z,15.33
2018-09-02T18:06:44.234Z,15.20
2018-09-02T18:09:16.292Z,15.20
2018-09-02T18:14:25.447Z,15.70
2018-09-02T18:16:53.723Z,15.03
2018-09-02T18:19:34.294Z,16.27
2018-09-02T18:25:07.542Z,15.27
2018-09-02T18:30:20.363Z,14.40
2018-09-02T18:32:59.225Z,14.90
2018-09-02T18:35:29.676Z,15.60
2018-09-02T18:43:22.460Z,16.53
2018-09-02T18:48:43.179Z,16.30
2018-09-02T18:51:11.703Z,17.20
2018-09-02T18:53:41.646Z,15.17
2018-09-02T18:56:17.172Z,15.00
2018-09-02T18:58:46.190Z,15.80
2018-09-02T19:01:23.108Z,15.37
2018-09-02T19:06:34.858Z,16.13
2018-09-02T19:11:46.323Z,17.30
2018-09-02T19:14:23.167Z,16.17
2018-09-02T19:19:39.806Z,15.13
2018-09-02T19:22:16.890Z,15.93
2018-09-02T19:27:34.080Z,16.37
2018-09-02T19:30:03.358Z,16.87
2018-09-02T19:32:37.167Z,15.70
2018-09-02T19:35:09.469Z,16.50
2018-09-02T19:37:38.427Z,18.30
2018-09-02T19:42:50.042Z,16.93
2018-09-02T19:45:27.084Z,16.47
2018-09-02T19:47:56.385Z,16.10
2018-09-02T19:50:25.511Z,17.23
2018-09-02T19:52:54.583Z,17.77
2018-09-02T19:55:23.135Z,16.73
2018-09-02T19:58:05.696Z,17.73
2018-09-02T20:00:36.064Z,15.57
2018-09-02T20:03:10.947Z,15.73
2018-09-02T20:05:41.063Z,17.70
2018-09-02T20:08:14.341Z,18.57
2018-09-02T20:10:43.809Z,17.30
2018-09-02T20:13:13.437Z,16.27
2018-09-02T20:15:43.924Z,16.90
2018-09-02T20:18:14.725Z,19.50
2018-09-02T20:20:46.667Z,18.63
2018-09-02T20:23:19.202Z,17.00
2018-09-02T20:31:15.349Z,19.77
2018-09-02T20:33:56.452Z,19.77
2018-09-02T20:36:25.109Z,18.20
2018-09-02T20:38:57.726Z,19.60
2018-09-02T20:41:32.107Z,20.63
2018-09-02T20:44:02.209Z,16.90
2018-09-02T20:46:31.178Z,17.13
2018-09-02T20:49:06.050Z,19.47
2018-09-02T20:51:35.755Z,20.83
2018-09-02T20:54:05.630Z,21.43
2018-09-02T21:02:03.479Z,20.97
2018-09-02T21:07:15.582Z,22.60
2018-09-02T21:09:45.493Z,22.10
2018-09-02T21:12:18.327Z,23.27
2018-09-02T21:14:52.450Z,21.00
2018-09-02T21:17:20.746Z,23.50
2018-09-02T21:19:49.118Z,22.60
2018-09-02T21:22:18.218Z,20.83
2018-09-02T21:24:46.973Z,22.23
2018-09-02T21:27:15.290Z,21.77
2018-09-02T21:29:43.511Z,20.77
2018-09-02T21:32:16.761Z,22.23
2018-09-02T21:34:45.519Z,22.20
2018-09-02T21:37:14.438Z,22.67
2018-09-02T21:39:43.311Z,22.23
2018-09-02T21:42:12.213Z,21.77
2018-09-02T21:44:46.635Z,22.80
2018-09-02T21:47:15.132Z,22.73
2018-09-02T21:49:43.510Z,19.60
2018-09-02T21:52:11.908Z,21.47
2018-09-02T21:54:40.343Z,21.60
2018-09-02T21:57:08.909Z,21.53
2018-09-02T21:59:38.865Z,23.27
2018-09-02T22:02:07.919Z,22.57
2018-09-02T22:04:36.396Z,23.03
2018-09-02T22:07:06.606Z,23.90
2018-09-02T22:09:35.326Z,21.40
2018-09-02T22:12:04.730Z,21.70
2018-09-02T22:14:33.215Z,20.57
2018-09-02T22:17:01.974Z,19.93
2018-09-02T22:19:30.284Z,19.90
2018-09-02T22:21:59.690Z,21.60
2018-09-02T22:24:28.035Z,23.17
2018-09-02T22:26:56.657Z,22.43
2018-09-02T22:29:25.347Z,21.00
2018-09-02T22:31:55.566Z,19.90
2018-09-02T22:37:03.164Z,20.30
2018-09-02T22:39:31.644Z,22.80
2018-09-02T22:41:59.965Z,23.57
2018-09-02T22:44:28.788Z,23.87
2018-09-02T22:46:57.062Z,22.97
2018-09-02T22:49:26.186Z,20.00
2018-09-02T22:51:54.439Z,21.40
2018-09-02T22:54:22.591Z,23.47
2018-09-02T22:56:50.757Z,23.00
2018-09-02T22:59:19.181Z,20.50
2018-09-02T23:01:47.302Z,21.50
2018-09-02T23:04:15.690Z,24.07
2018-09-02T23:06:43.940Z,22.60
2018-09-02T23:09:12.503Z,24.07
2018-09-02T23:11:40.964Z,23.53
2018-09-02T23:14:09.257Z,24.83
2018-09-02T23:16:38.787Z,23.03
2018-09-02T23:19:07.133Z,23.13
2018-09-02T23:21:35.842Z,24.30
2018-09-02T23:24:04.697Z,21.63
2018-09-02T23:26:33.461Z,21.27
2018-09-02T23:29:01.728Z,23.77
2018-09-02T23:31:30.335Z,22.40
2018-09-02T23:33:59.642Z,22.93
2018-09-02T23:36:27.793Z,22.70
2018-09-02T23:38:55.991Z,25.57
2018-09-02T23:41:24.097Z,23.93
2018-09-02T23:43:52.312Z,22.37
2018-09-02T23:46:20.652Z,24.27
2018-09-02T23:48:48.835Z,23.37
2018-09-02T23:51:16.982Z,24.30
2018-09-02T23:53:45.153Z,25.57
2018-09-02T23:56:13.458Z,28.07
2018-09-02T23:58:42.185Z,27.23
